sensor_id;sensor_type;location;lat;lon;timestamp;temperature;humidity
995;DHT22;486;48.726;8.964;2022-07-23T00:00:54;23.30;99.90
995;DHT22;486;48.726;8.964;2022-07-23T00:03:23;23.20;99.90
995;DHT22;486;48.726;8.964;2022-07-23T00:05:52;23.20;99.90
995;DHT22;486;48.726;8.964;2022-07-23T00:08:21;23.20;99.90
995;DHT22;486;48.726;8.964;2022-07-23T00:10:50;23.20;99.90
995;DHT22;486;48.726;8.964;2022-07-23T00:13:22;23.10;99.90
995;DHT22;486;48.726;8.964;2022-07-23T00:15:51;23.20;99.90
995;DHT22;486;48.726;8.964;2022-07-23T00:18:20;23.10;99.90
995;DHT22;486;48.726;8.964;2022-07-23T00:20:49;23.10;99.90
995;DHT22;486;48.726;8.964;2022-07-23T00:23:18;23.10;99.90
995;DHT22;486;48.726;8.964;2022-07-23T00:25:47;23.00;99.90
995;DHT22;486;48.726;8.964;2022-07-23T00:28:16;22.90;99.90
995;DHT22;486;48.726;8.964;2022-07-23T00:30:48;22.90;99.90
995;DHT22;486;48.726;8.964;2022-07-23T00:33:18;22.80;99.90
995;DHT22;486;48.726;8.964;2022-07-23T00:35:47;22.80;99.90
995;DHT22;486;48.726;8.964;2022-07-23T00:38:16;22.70;99.90
995;DHT22;486;48.726;8.964;2022-07-23T00:40:45;22.60;99.90
995;DHT22;486;48.726;8.964;2022-07-23T00:43:14;22.50;99.90
995;DHT22;486;48.726;8.964;2022-07-23T00:45:43;22.40;99.90
995;DHT22;486;48.726;8.964;2022-07-23T00:48:15;22.40;99.90
995;DHT22;486;48.726;8.964;2022-07-23T00:50:44;22.40;99.90
995;DHT22;486;48.726;8.964;2022-07-23T00:53:13;22.40;99.90
995;DHT22;486;48.726;8.964;2022-07-23T00:55:43;22.40;99.90
995;DHT22;486;48.726;8.964;2022-07-23T00:58:12;22.30;99.90
995;DHT22;486;48.726;8.964;2022-07-23T01:00:42;22.10;99.90
995;DHT22;486;48.726;8.964;2022-07-23T01:03:11;22.10;99.90
995;DHT22;486;48.726;8.964;2022-07-23T01:05:43;22.10;99.90
995;DHT22;486;48.726;8.964;2022-07-23T01:08:12;22.20;99.90
995;DHT22;486;48.726;8.964;2022-07-23T01:10:42;22.10;99.90
995;DHT22;486;48.726;8.964;2022-07-23T01:13:11;22.00;99.90
995;DHT22;486;48.726;8.964;2022-07-23T01:15:40;21.80;99.90
995;DHT22;486;48.726;8.964;2022-07-23T01:18:09;21.80;99.90
995;DHT22;486;48.726;8.964;2022-07-23T01:20:38;21.80;99.90
995;DHT22;486;48.726;8.964;2022-07-23T01:23:11;21.80;99.90
995;DHT22;486;48.726;8.964;2022-07-23T01:25:49;21.90;99.90
995;DHT22;486;48.726;8.964;2022-07-23T01:28:22;21.90;99.90
995;DHT22;486;48.726;8.964;2022-07-23T01:30:51;21.90;99.90
995;DHT22;486;48.726;8.964;2022-07-23T01:33:20;21.80;99.90
995;DHT22;486;48.726;8.964;2022-07-23T01:35:49;21.80;99.90
995;DHT22;486;48.726;8.964;2022-07-23T01:38:25;21.80;99.90
995;DHT22;486;48.726;8.964;2022-07-23T01:40:54;21.70;99.90
995;DHT22;486;48.726;8.964;2022-07-23T01:43:29;21.60;99.90
995;DHT22;486;48.726;8.964;2022-07-23T01:45:58;21.70;99.90
995;DHT22;486;48.726;8.964;2022-07-23T01:48:32;21.60;99.90
995;DHT22;486;48.726;8.964;2022-07-23T01:51:22;21.50;99.90
995;DHT22;486;48.726;8.964;2022-07-23T01:54:05;21.40;99.90
995;DHT22;486;48.726;8.964;2022-07-23T01:56:34;21.30;99.90
995;DHT22;486;48.726;8.964;2022-07-23T01:59:04;21.30;99.90
995;DHT22;486;48.726;8.964;2022-07-23T02:01:33;21.30;99.90
995;DHT22;486;48.726;8.964;2022-07-23T02:04:03;21.30;99.90
995;DHT22;486;48.726;8.964;2022-07-23T02:06:32;21.20;99.90
995;DHT22;486;48.726;8.964;2022-07-23T02:09:01;21.20;99.90
995;DHT22;486;48.726;8.964;2022-07-23T02:11:33;21.20;99.90
995;DHT22;486;48.726;8.964;2022-07-23T02:14:02;21.10;99.90
995;DHT22;486;48.726;8.964;2022-07-23T02:16:31;21.00;99.90
995;DHT22;486;48.726;8.964;2022-07-23T02:19:02;21.00;99.90
995;DHT22;486;48.726;8.964;2022-07-23T02:21:31;21.00;99.90
995;DHT22;486;48.726;8.964;2022-07-23T02:24:01;21.00;99.90
995;DHT22;486;48.726;8.964;2022-07-23T02:26:33;21.00;99.90
995;DHT22;486;48.726;8.964;2022-07-23T02:29:05;21.00;99.90
995;DHT22;486;48.726;8.964;2022-07-23T02:31:34;21.00;99.90
995;DHT22;486;48.726;8.964;2022-07-23T02:34:04;21.00;99.90
995;DHT22;486;48.726;8.964;2022-07-23T02:36:37;21.00;99.90
995;DHT22;486;48.726;8.964;2022-07-23T02:39:07;20.90;99.90
995;DHT22;486;48.726;8.964;2022-07-23T02:41:39;20.90;99.90
995;DHT22;486;48.726;8.964;2022-07-23T02:44:08;20.90;99.90
995;DHT22;486;48.726;8.964;2022-07-23T02:46:38;20.90;99.90
995;DHT22;486;48.726;8.964;2022-07-23T02:49:07;20.90;99.90
995;DHT22;486;48.726;8.964;2022-07-23T02:51:36;20.80;99.90
995;DHT22;486;48.726;8.964;2022-07-23T02:54:06;20.80;99.90
995;DHT22;486;48.726;8.964;2022-07-23T02:56:35;20.70;99.90
995;DHT22;486;48.726;8.964;2022-07-23T02:59:07;20.70;99.90
995;DHT22;486;48.726;8.964;2022-07-23T03:01:36;20.60;99.90
995;DHT22;486;48.726;8.964;2022-07-23T03:04:06;20.40;99.90
995;DHT22;486;48.726;8.964;2022-07-23T03:06:35;20.40;99.90
995;DHT22;486;48.726;8.964;2022-07-23T03:09:05;20.40;99.90
995;DHT22;486;48.726;8.964;2022-07-23T03:11:34;20.30;99.90
995;DHT22;486;48.726;8.964;2022-07-23T03:14:06;20.30;99.90
995;DHT22;486;48.726;8.964;2022-07-23T03:16:39;20.30;99.90
995;DHT22;486;48.726;8.964;2022-07-23T03:19:08;20.30;99.90
995;DHT22;486;48.726;8.964;2022-07-23T03:21:37;20.40;99.90
995;DHT22;486;48.726;8.964;2022-07-23T03:24:07;20.40;99.90
995;DHT22;486;48.726;8.964;2022-07-23T03:26:37;20.50;99.90
995;DHT22;486;48.726;8.964;2022-07-23T03:29:09;20.40;99.90
995;DHT22;486;48.726;8.964;2022-07-23T03:31:38;20.20;99.90
995;DHT22;486;48.726;8.964;2022-07-23T03:34:07;20.10;99.90
995;DHT22;486;48.726;8.964;2022-07-23T03:36:36;19.90;99.90
995;DHT22;486;48.726;8.964;2022-07-23T03:39:06;19.90;99.90
995;DHT22;486;48.726;8.964;2022-07-23T03:41:35;20.00;99.90
995;DHT22;486;48.726;8.964;2022-07-23T03:44:04;20.00;99.90
995;DHT22;486;48.726;8.964;2022-07-23T03:46:36;20.00;99.90
995;DHT22;486;48.726;8.964;2022-07-23T03:49:05;20.10;99.90
995;DHT22;486;48.726;8.964;2022-07-23T03:51:34;20.20;99.90
995;DHT22;486;48.726;8.964;2022-07-23T03:54:03;20.20;99.90
995;DHT22;486;48.726;8.964;2022-07-23T03:56:33;20.30;99.90
995;DHT22;486;48.726;8.964;2022-07-23T03:59:02;20.40;99.90
995;DHT22;486;48.726;8.964;2022-07-23T04:01:31;20.40;99.90
995;DHT22;486;48.726;8.964;2022-07-23T04:04:03;20.50;99.90
995;DHT22;486;48.726;8.964;2022-07-23T04:06:35;20.40;99.90
995;DHT22;486;48.726;8.964;2022-07-23T04:09:04;20.50;99.90
995;DHT22;486;48.726;8.964;2022-07-23T04:11:33;20.60;99.90
995;DHT22;486;48.726;8.964;2022-07-23T04:14:02;20.60;99.90
995;DHT22;486;48.726;8.964;2022-07-23T04:16:31;20.70;99.90
995;DHT22;486;48.726;8.964;2022-07-23T04:19:03;20.80;99.90
995;DHT22;486;48.726;8.964;2022-07-23T04:21:41;20.70;99.90
995;DHT22;486;48.726;8.964;2022-07-23T04:24:11;20.80;99.90
995;DHT22;486;48.726;8.964;2022-07-23T04:26:40;20.80;99.90
995;DHT22;486;48.726;8.964;2022-07-23T04:29:09;20.80;99.90
995;DHT22;486;48.726;8.964;2022-07-23T04:31:38;20.80;99.90
995;DHT22;486;48.726;8.964;2022-07-23T04:34:10;20.80;99.90
995;DHT22;486;48.726;8.964;2022-07-23T04:36:39;20.80;99.90
995;DHT22;486;48.726;8.964;2022-07-23T04:39:08;20.80;99.90
995;DHT22;486;48.726;8.964;2022-07-23T04:41:37;20.80;99.90
995;DHT22;486;48.726;8.964;2022-07-23T04:44:06;20.80;99.90
995;DHT22;486;48.726;8.964;2022-07-23T04:46:36;20.80;99.90
995;DHT22;486;48.726;8.964;2022-07-23T04:49:06;20.80;99.90
995;DHT22;486;48.726;8.964;2022-07-23T04:51:38;20.90;99.90
995;DHT22;486;48.726;8.964;2022-07-23T04:54:07;20.90;99.90
995;DHT22;486;48.726;8.964;2022-07-23T04:56:36;20.90;99.90
995;DHT22;486;48.726;8.964;2022-07-23T04:59:05;21.00;99.90
995;DHT22;486;48.726;8.964;2022-07-23T05:01:34;21.10;99.90
995;DHT22;486;48.726;8.964;2022-07-23T05:04:04;21.10;99.90
995;DHT22;486;48.726;8.964;2022-07-23T05:06:39;21.10;99.90
995;DHT22;486;48.726;8.964;2022-07-23T05:09:08;21.10;99.90
995;DHT22;486;48.726;8.964;2022-07-23T05:11:37;21.20;99.90
995;DHT22;486;48.726;8.964;2022-07-23T05:14:06;21.30;99.90
995;DHT22;486;48.726;8.964;2022-07-23T05:16:38;21.50;99.90
995;DHT22;486;48.726;8.964;2022-07-23T05:19:12;21.50;99.90
995;DHT22;486;48.726;8.964;2022-07-23T05:21:44;21.60;99.90
995;DHT22;486;48.726;8.964;2022-07-23T05:24:14;21.80;99.90
995;DHT22;486;48.726;8.964;2022-07-23T05:26:43;21.90;99.90
995;DHT22;486;48.726;8.964;2022-07-23T05:29:12;22.00;99.90
995;DHT22;486;48.726;8.964;2022-07-23T05:31:41;22.10;99.90
995;DHT22;486;48.726;8.964;2022-07-23T05:34:12;22.10;99.90
995;DHT22;486;48.726;8.964;2022-07-23T05:36:44;22.10;99.90
995;DHT22;486;48.726;8.964;2022-07-23T05:39:14;22.20;99.90
995;DHT22;486;48.726;8.964;2022-07-23T05:41:43;22.20;99.90
995;DHT22;486;48.726;8.964;2022-07-23T05:44:13;22.20;99.90
995;DHT22;486;48.726;8.964;2022-07-23T05:46:43;22.20;99.90
995;DHT22;486;48.726;8.964;2022-07-23T05:49:18;22.30;99.90
995;DHT22;486;48.726;8.964;2022-07-23T05:51:59;22.40;99.90
995;DHT22;486;48.726;8.964;2022-07-23T05:54:49;22.40;99.90
995;DHT22;486;48.726;8.964;2022-07-23T05:57:19;22.50;99.90
995;DHT22;486;48.726;8.964;2022-07-23T05:59:48;22.60;99.90
995;DHT22;486;48.726;8.964;2022-07-23T06:02:17;22.60;99.90
995;DHT22;486;48.726;8.964;2022-07-23T06:04:46;22.70;99.90
995;DHT22;486;48.726;8.964;2022-07-23T06:07:32;22.70;99.90
995;DHT22;486;48.726;8.964;2022-07-23T06:10:03;22.80;99.90
995;DHT22;486;48.726;8.964;2022-07-23T06:12:33;22.90;99.90
995;DHT22;486;48.726;8.964;2022-07-23T06:15:02;23.10;99.90
995;DHT22;486;48.726;8.964;2022-07-23T06:17:33;23.30;99.90
995;DHT22;486;48.726;8.964;2022-07-23T06:20:05;23.50;99.90
995;DHT22;486;48.726;8.964;2022-07-23T06:22:40;23.70;99.90
995;DHT22;486;48.726;8.964;2022-07-23T06:25:11;23.80;99.90
995;DHT22;486;48.726;8.964;2022-07-23T06:27:43;23.80;99.90
995;DHT22;486;48.726;8.964;2022-07-23T06:30:13;23.80;99.90
995;DHT22;486;48.726;8.964;2022-07-23T06:32:44;23.80;99.90
995;DHT22;486;48.726;8.964;2022-07-23T06:35:15;23.80;99.90
995;DHT22;486;48.726;8.964;2022-07-23T06:37:48;23.60;99.90
995;DHT22;486;48.726;8.964;2022-07-23T06:40:18;23.60;99.90
995;DHT22;486;48.726;8.964;2022-07-23T06:42:47;23.50;99.90
995;DHT22;486;48.726;8.964;2022-07-23T06:45:21;23.50;99.90
995;DHT22;486;48.726;8.964;2022-07-23T06:47:50;23.30;99.90
995;DHT22;486;48.726;8.964;2022-07-23T06:50:19;23.10;99.90
995;DHT22;486;48.726;8.964;2022-07-23T06:52:51;23.10;99.90
995;DHT22;486;48.726;8.964;2022-07-23T06:55:20;22.90;99.90
995;DHT22;486;48.726;8.964;2022-07-23T06:57:49;22.90;99.90
995;DHT22;486;48.726;8.964;2022-07-23T07:00:18;22.90;99.90
995;DHT22;486;48.726;8.964;2022-07-23T07:02:48;22.90;99.90
995;DHT22;486;48.726;8.964;2022-07-23T07:05:16;22.70;99.90
995;DHT22;486;48.726;8.964;2022-07-23T07:11:12;22.60;99.90
995;DHT22;486;48.726;8.964;2022-07-23T07:13:41;22.50;99.90
995;DHT22;486;48.726;8.964;2022-07-23T07:16:09;22.40;99.90
995;DHT22;486;48.726;8.964;2022-07-23T07:18:39;22.30;99.90
995;DHT22;486;48.726;8.964;2022-07-23T07:21:07;22.40;99.90
995;DHT22;486;48.726;8.964;2022-07-23T07:23:37;22.40;99.90
995;DHT22;486;48.726;8.964;2022-07-23T07:26:06;22.30;99.90
995;DHT22;486;48.726;8.964;2022-07-23T07:28:37;22.30;99.90
995;DHT22;486;48.726;8.964;2022-07-23T07:31:06;22.60;99.90
995;DHT22;486;48.726;8.964;2022-07-23T07:33:35;22.70;99.90
995;DHT22;486;48.726;8.964;2022-07-23T07:36:05;22.80;99.90
995;DHT22;486;48.726;8.964;2022-07-23T07:38:34;22.90;99.90
995;DHT22;486;48.726;8.964;2022-07-23T07:41:03;23.10;99.90
995;DHT22;486;48.726;8.964;2022-07-23T07:43:33;23.30;99.90
995;DHT22;486;48.726;8.964;2022-07-23T07:46:05;23.50;99.90
995;DHT22;486;48.726;8.964;2022-07-23T07:48:35;23.50;99.90
995;DHT22;486;48.726;8.964;2022-07-23T07:51:05;23.40;99.90
995;DHT22;486;48.726;8.964;2022-07-23T07:53:34;23.40;99.90
995;DHT22;486;48.726;8.964;2022-07-23T07:59:36;23.60;99.90
995;DHT22;486;48.726;8.964;2022-07-23T08:02:08;23.50;99.90
995;DHT22;486;48.726;8.964;2022-07-23T08:04:36;23.50;99.90
995;DHT22;486;48.726;8.964;2022-07-23T08:07:06;23.60;99.90
995;DHT22;486;48.726;8.964;2022-07-23T08:09:35;23.70;99.90
995;DHT22;486;48.726;8.964;2022-07-23T08:12:04;23.80;99.90
995;DHT22;486;48.726;8.964;2022-07-23T08:14:33;23.70;99.90
995;DHT22;486;48.726;8.964;2022-07-23T08:17:02;23.70;99.90
995;DHT22;486;48.726;8.964;2022-07-23T08:19:34;23.90;99.90
995;DHT22;486;48.726;8.964;2022-07-23T08:22:04;24.20;99.90
995;DHT22;486;48.726;8.964;2022-07-23T08:24:33;24.40;99.90
995;DHT22;486;48.726;8.964;2022-07-23T08:27:02;24.70;99.90
995;DHT22;486;48.726;8.964;2022-07-23T08:29:31;24.90;99.90
995;DHT22;486;48.726;8.964;2022-07-23T08:32:00;24.80;99.90
995;DHT22;486;48.726;8.964;2022-07-23T08:34:29;24.90;99.90
995;DHT22;486;48.726;8.964;2022-07-23T08:37:00;25.30;99.90
995;DHT22;486;48.726;8.964;2022-07-23T08:39:29;25.60;98.90
995;DHT22;486;48.726;8.964;2022-07-23T08:41:58;25.50;98.00
995;DHT22;486;48.726;8.964;2022-07-23T08:44:28;25.50;98.00
995;DHT22;486;48.726;8.964;2022-07-23T08:46:57;25.50;97.40
995;DHT22;486;48.726;8.964;2022-07-23T08:49:26;25.40;97.30
995;DHT22;486;48.726;8.964;2022-07-23T08:51:55;25.50;96.60
995;DHT22;486;48.726;8.964;2022-07-23T08:54:27;25.70;96.90
995;DHT22;486;48.726;8.964;2022-07-23T08:56:57;26.00;96.00
995;DHT22;486;48.726;8.964;2022-07-23T08:59:26;26.10;96.00
995;DHT22;486;48.726;8.964;2022-07-23T09:01:57;26.30;95.50
995;DHT22;486;48.726;8.964;2022-07-23T09:04:27;26.60;94.40
995;DHT22;486;48.726;8.964;2022-07-23T09:06:56;26.80;94.20
995;DHT22;486;48.726;8.964;2022-07-23T09:09:28;27.40;93.10
995;DHT22;486;48.726;8.964;2022-07-23T09:12:03;27.70;91.00
995;DHT22;486;48.726;8.964;2022-07-23T09:14:38;27.90;90.30
995;DHT22;486;48.726;8.964;2022-07-23T09:17:09;28.00;88.90
995;DHT22;486;48.726;8.964;2022-07-23T09:19:39;28.00;89.00
995;DHT22;486;48.726;8.964;2022-07-23T09:22:19;27.60;87.20
995;DHT22;486;48.726;8.964;2022-07-23T09:25:07;27.10;87.50
995;DHT22;486;48.726;8.964;2022-07-23T09:27:49;26.80;89.80
995;DHT22;486;48.726;8.964;2022-07-23T09:30:22;26.80;89.10
995;DHT22;486;48.726;8.964;2022-07-23T09:33:06;26.90;91.10
995;DHT22;486;48.726;8.964;2022-07-23T09:35:50;27.20;90.50
995;DHT22;486;48.726;8.964;2022-07-23T09:38:22;27.30;89.70
995;DHT22;486;48.726;8.964;2022-07-23T09:41:10;27.50;91.20
995;DHT22;486;48.726;8.964;2022-07-23T09:43:40;28.00;89.40
995;DHT22;486;48.726;8.964;2022-07-23T09:46:20;28.00;88.10
995;DHT22;486;48.726;8.964;2022-07-23T09:48:50;28.10;87.40
995;DHT22;486;48.726;8.964;2022-07-23T09:51:22;28.10;85.30
995;DHT22;486;48.726;8.964;2022-07-23T09:53:58;28.10;85.70
995;DHT22;486;48.726;8.964;2022-07-23T09:56:31;28.30;84.90
995;DHT22;486;48.726;8.964;2022-07-23T09:59:02;28.10;83.20
995;DHT22;486;48.726;8.964;2022-07-23T10:01:33;27.80;84.40
995;DHT22;486;48.726;8.964;2022-07-23T10:04:02;27.70;84.70
995;DHT22;486;48.726;8.964;2022-07-23T10:06:55;27.80;86.50
995;DHT22;486;48.726;8.964;2022-07-23T10:09:44;28.20;86.50
995;DHT22;486;48.726;8.964;2022-07-23T10:12:39;28.50;84.30
995;DHT22;486;48.726;8.964;2022-07-23T10:15:20;28.60;83.30
995;DHT22;486;48.726;8.964;2022-07-23T10:17:50;28.20;83.30
995;DHT22;486;48.726;8.964;2022-07-23T10:20:20;27.70;86.40
995;DHT22;486;48.726;8.964;2022-07-23T10:22:56;27.70;85.40
995;DHT22;486;48.726;8.964;2022-07-23T10:25:38;27.70;85.00
995;DHT22;486;48.726;8.964;2022-07-23T10:28:30;28.00;83.10
995;DHT22;486;48.726;8.964;2022-07-23T10:31:20;28.30;81.70
995;DHT22;486;48.726;8.964;2022-07-23T10:34:01;28.30;80.80
995;DHT22;486;48.726;8.964;2022-07-23T10:36:42;28.20;79.30
995;DHT22;486;48.726;8.964;2022-07-23T10:39:18;27.90;81.60
995;DHT22;486;48.726;8.964;2022-07-23T10:41:51;28.00;82.80
995;DHT22;486;48.726;8.964;2022-07-23T10:44:22;28.20;82.10
995;DHT22;486;48.726;8.964;2022-07-23T10:46:57;28.50;82.80
995;DHT22;486;48.726;8.964;2022-07-23T10:49:41;28.70;81.40
995;DHT22;486;48.726;8.964;2022-07-23T10:52:24;29.00;79.30
995;DHT22;486;48.726;8.964;2022-07-23T10:54:55;29.30;78.00
995;DHT22;486;48.726;8.964;2022-07-23T10:57:26;29.10;76.60
995;DHT22;486;48.726;8.964;2022-07-23T11:00:15;29.00;76.60
995;DHT22;486;48.726;8.964;2022-07-23T11:02:47;29.00;75.60
995;DHT22;486;48.726;8.964;2022-07-23T11:05:19;28.70;76.90
995;DHT22;486;48.726;8.964;2022-07-23T11:08:11;28.80;77.60
995;DHT22;486;48.726;8.964;2022-07-23T11:10:48;28.90;77.40
995;DHT22;486;48.726;8.964;2022-07-23T11:13:36;28.40;77.00
995;DHT22;486;48.726;8.964;2022-07-23T11:16:13;28.50;76.90
995;DHT22;486;48.726;8.964;2022-07-23T11:19:10;28.80;75.70
995;DHT22;486;48.726;8.964;2022-07-23T11:21:47;29.20;77.50
995;DHT22;486;48.726;8.964;2022-07-23T11:24:21;29.40;73.90
995;DHT22;486;48.726;8.964;2022-07-23T11:26:58;29.00;74.70
995;DHT22;486;48.726;8.964;2022-07-23T11:29:39;29.00;76.00
995;DHT22;486;48.726;8.964;2022-07-23T11:32:36;28.90;75.00
995;DHT22;486;48.726;8.964;2022-07-23T11:35:23;28.70;72.60
995;DHT22;486;48.726;8.964;2022-07-23T11:38:02;28.60;74.70
995;DHT22;486;48.726;8.964;2022-07-23T11:40:33;28.70;74.40
995;DHT22;486;48.726;8.964;2022-07-23T11:43:04;28.90;74.30
995;DHT22;486;48.726;8.964;2022-07-23T11:45:37;29.20;74.80
995;DHT22;486;48.726;8.964;2022-07-23T11:48:15;29.70;74.20
995;DHT22;486;48.726;8.964;2022-07-23T11:50:45;29.40;73.90
995;DHT22;486;48.726;8.964;2022-07-23T11:53:22;29.50;73.20
995;DHT22;486;48.726;8.964;2022-07-23T11:55:52;29.80;72.60
995;DHT22;486;48.726;8.964;2022-07-23T11:58:21;29.70;72.30
995;DHT22;486;48.726;8.964;2022-07-23T12:00:50;29.50;72.90
995;DHT22;486;48.726;8.964;2022-07-23T12:03:22;29.20;73.70
995;DHT22;486;48.726;8.964;2022-07-23T12:05:56;29.20;73.50
995;DHT22;486;48.726;8.964;2022-07-23T12:08:26;29.10;72.80
995;DHT22;486;48.726;8.964;2022-07-23T12:10:55;29.40;72.10
995;DHT22;486;48.726;8.964;2022-07-23T12:13:24;29.60;75.20
995;DHT22;486;48.726;8.964;2022-07-23T12:15:56;29.90;71.70
995;DHT22;486;48.726;8.964;2022-07-23T12:19:22;29.70;73.60
995;DHT22;486;48.726;8.964;2022-07-23T12:21:53;29.50;73.00
995;DHT22;486;48.726;8.964;2022-07-23T12:24:25;29.40;74.80
995;DHT22;486;48.726;8.964;2022-07-23T12:27:10;29.40;74.70
995;DHT22;486;48.726;8.964;2022-07-23T12:29:40;29.30;75.30
995;DHT22;486;48.726;8.964;2022-07-23T12:32:18;29.00;75.20
995;DHT22;486;48.726;8.964;2022-07-23T12:35:03;28.50;76.20
995;DHT22;486;48.726;8.964;2022-07-23T12:37:35;28.80;76.70
995;DHT22;486;48.726;8.964;2022-07-23T12:40:21;28.90;75.10
995;DHT22;486;48.726;8.964;2022-07-23T12:42:54;28.90;75.90
995;DHT22;486;48.726;8.964;2022-07-23T12:45:25;29.00;75.90
995;DHT22;486;48.726;8.964;2022-07-23T12:48:01;28.90;75.40
995;DHT22;486;48.726;8.964;2022-07-23T12:50:41;29.10;74.60
995;DHT22;486;48.726;8.964;2022-07-23T12:53:14;29.10;74.80
995;DHT22;486;48.726;8.964;2022-07-23T12:55:44;29.50;74.40
995;DHT22;486;48.726;8.964;2022-07-23T12:58:16;29.40;73.60
995;DHT22;486;48.726;8.964;2022-07-23T13:00:57;29.40;72.70
995;DHT22;486;48.726;8.964;2022-07-23T13:03:32;29.60;72.00
995;DHT22;486;48.726;8.964;2022-07-23T13:06:07;30.10;72.70
995;DHT22;486;48.726;8.964;2022-07-23T13:08:38;30.70;69.70
995;DHT22;486;48.726;8.964;2022-07-23T13:11:08;31.10;69.30
995;DHT22;486;48.726;8.964;2022-07-23T13:13:37;31.50;66.90
995;DHT22;486;48.726;8.964;2022-07-23T13:16:07;31.30;67.60
995;DHT22;486;48.726;8.964;2022-07-23T13:18:36;31.50;67.80
995;DHT22;486;48.726;8.964;2022-07-23T13:21:08;30.60;69.70
995;DHT22;486;48.726;8.964;2022-07-23T13:23:37;30.70;70.20
995;DHT22;486;48.726;8.964;2022-07-23T13:26:07;30.70;67.80
995;DHT22;486;48.726;8.964;2022-07-23T13:28:36;30.80;68.50
995;DHT22;486;48.726;8.964;2022-07-23T13:31:05;31.10;67.40
995;DHT22;486;48.726;8.964;2022-07-23T13:33:35;31.30;66.40
995;DHT22;486;48.726;8.964;2022-07-23T13:36:09;30.50;67.70
995;DHT22;486;48.726;8.964;2022-07-23T13:38:39;30.20;69.20
995;DHT22;486;48.726;8.964;2022-07-23T13:41:08;30.10;68.40
995;DHT22;486;48.726;8.964;2022-07-23T13:43:37;30.10;68.70
995;DHT22;486;48.726;8.964;2022-07-23T13:46:06;29.60;68.40
995;DHT22;486;48.726;8.964;2022-07-23T13:48:36;29.20;70.30
995;DHT22;486;48.726;8.964;2022-07-23T13:51:05;29.20;70.00
995;DHT22;486;48.726;8.964;2022-07-23T13:53:38;30.50;69.60
995;DHT22;486;48.726;8.964;2022-07-23T13:56:08;31.30;67.20
995;DHT22;486;48.726;8.964;2022-07-23T13:58:37;31.60;65.30
995;DHT22;486;48.726;8.964;2022-07-23T14:01:06;32.00;64.50
995;DHT22;486;48.726;8.964;2022-07-23T14:03:35;32.30;61.90
995;DHT22;486;48.726;8.964;2022-07-23T14:06:04;31.60;61.90
995;DHT22;486;48.726;8.964;2022-07-23T14:08:36;32.00;63.30
995;DHT22;486;48.726;8.964;2022-07-23T14:11:05;32.70;61.00
995;DHT22;486;48.726;8.964;2022-07-23T14:13:34;33.80;60.00
995;DHT22;486;48.726;8.964;2022-07-23T14:16:04;33.30;58.10
995;DHT22;486;48.726;8.964;2022-07-23T14:18:34;32.50;59.10
995;DHT22;486;48.726;8.964;2022-07-23T14:21:03;31.80;60.40
995;DHT22;486;48.726;8.964;2022-07-23T14:23:32;31.50;59.80
995;DHT22;486;48.726;8.964;2022-07-23T14:26:05;31.60;61.60
995;DHT22;486;48.726;8.964;2022-07-23T14:28:34;32.60;58.60
995;DHT22;486;48.726;8.964;2022-07-23T14:31:03;32.80;60.20
995;DHT22;486;48.726;8.964;2022-07-23T14:33:32;34.00;56.30
995;DHT22;486;48.726;8.964;2022-07-23T14:36:02;34.70;54.60
995;DHT22;486;48.726;8.964;2022-07-23T14:38:31;34.90;53.20
995;DHT22;486;48.726;8.964;2022-07-23T14:41:03;34.80;52.80
995;DHT22;486;48.726;8.964;2022-07-23T14:43:33;35.20;52.80
995;DHT22;486;48.726;8.964;2022-07-23T14:46:03;34.50;52.20
995;DHT22;486;48.726;8.964;2022-07-23T14:48:32;32.70;54.80
995;DHT22;486;48.726;8.964;2022-07-23T14:51:01;32.80;56.20
995;DHT22;486;48.726;8.964;2022-07-23T14:53:30;34.40;54.10
995;DHT22;486;48.726;8.964;2022-07-23T14:56:02;35.40;51.80
995;DHT22;486;48.726;8.964;2022-07-23T14:58:33;35.20;51.00
995;DHT22;486;48.726;8.964;2022-07-23T15:01:03;34.70;50.50
995;DHT22;486;48.726;8.964;2022-07-23T15:03:33;33.80;52.10
995;DHT22;486;48.726;8.964;2022-07-23T15:06:05;33.00;54.20
995;DHT22;486;48.726;8.964;2022-07-23T15:08:35;33.40;54.00
995;DHT22;486;48.726;8.964;2022-07-23T15:11:07;34.50;53.40
995;DHT22;486;48.726;8.964;2022-07-23T15:13:37;34.70;51.60
995;DHT22;486;48.726;8.964;2022-07-23T15:16:08;34.40;51.90
995;DHT22;486;48.726;8.964;2022-07-23T15:18:37;33.60;52.70
995;DHT22;486;48.726;8.964;2022-07-23T15:21:06;33.80;53.80
995;DHT22;486;48.726;8.964;2022-07-23T15:23:35;34.00;52.80
995;DHT22;486;48.726;8.964;2022-07-23T15:26:08;33.00;53.50
995;DHT22;486;48.726;8.964;2022-07-23T15:28:37;31.60;56.70
995;DHT22;486;48.726;8.964;2022-07-23T15:31:07;31.80;57.30
995;DHT22;486;48.726;8.964;2022-07-23T15:33:37;33.10;56.10
995;DHT22;486;48.726;8.964;2022-07-23T15:36:07;34.20;53.50
995;DHT22;486;48.726;8.964;2022-07-23T15:38:37;35.00;52.80
995;DHT22;486;48.726;8.964;2022-07-23T15:41:09;35.50;51.70
995;DHT22;486;48.726;8.964;2022-07-23T15:43:38;35.70;50.90
995;DHT22;486;48.726;8.964;2022-07-23T15:46:07;35.20;50.90
995;DHT22;486;48.726;8.964;2022-07-23T15:48:37;34.70;52.50
995;DHT22;486;48.726;8.964;2022-07-23T15:51:06;34.60;52.20
995;DHT22;486;48.726;8.964;2022-07-23T15:53:36;34.70;51.80
995;DHT22;486;48.726;8.964;2022-07-23T15:56:06;34.00;52.10
995;DHT22;486;48.726;8.964;2022-07-23T15:58:38;34.10;52.80
995;DHT22;486;48.726;8.964;2022-07-23T16:01:07;34.30;51.00
995;DHT22;486;48.726;8.964;2022-07-23T16:03:36;34.30;52.70
995;DHT22;486;48.726;8.964;2022-07-23T16:06:06;34.30;52.20
995;DHT22;486;48.726;8.964;2022-07-23T16:11:05;32.60;55.10
995;DHT22;486;48.726;8.964;2022-07-23T16:13:37;31.40;57.80
995;DHT22;486;48.726;8.964;2022-07-23T16:16:06;31.30;58.40
995;DHT22;486;48.726;8.964;2022-07-23T16:18:36;31.10;58.60
995;DHT22;486;48.726;8.964;2022-07-23T16:21:06;31.30;58.50
995;DHT22;486;48.726;8.964;2022-07-23T16:23:35;30.90;59.00
995;DHT22;486;48.726;8.964;2022-07-23T16:26:05;30.60;59.60
995;DHT22;486;48.726;8.964;2022-07-23T16:28:36;30.10;61.30
995;DHT22;486;48.726;8.964;2022-07-23T16:31:05;29.60;62.50
995;DHT22;486;48.726;8.964;2022-07-23T16:33:34;29.50;63.60
995;DHT22;486;48.726;8.964;2022-07-23T16:36:04;29.70;63.90
995;DHT22;486;48.726;8.964;2022-07-23T16:38:38;29.90;63.00
995;DHT22;486;48.726;8.964;2022-07-23T16:41:08;29.50;64.20
995;DHT22;486;48.726;8.964;2022-07-23T16:43:39;29.50;63.80
995;DHT22;486;48.726;8.964;2022-07-23T16:46:08;29.30;64.70
995;DHT22;486;48.726;8.964;2022-07-23T16:48:39;29.60;64.60
995;DHT22;486;48.726;8.964;2022-07-23T16:51:08;30.00;63.70
995;DHT22;486;48.726;8.964;2022-07-23T16:53:37;30.00;62.50
995;DHT22;486;48.726;8.964;2022-07-23T16:56:07;30.50;62.10
995;DHT22;486;48.726;8.964;2022-07-23T16:58:40;31.30;61.20
995;DHT22;486;48.726;8.964;2022-07-23T17:01:09;32.00;59.30
995;DHT22;486;48.726;8.964;2022-07-23T17:03:38;31.60;60.40
995;DHT22;486;48.726;8.964;2022-07-23T17:06:07;31.90;59.50
995;DHT22;486;48.726;8.964;2022-07-23T17:08:37;32.30;58.90
995;DHT22;486;48.726;8.964;2022-07-23T17:11:06;31.50;59.80
995;DHT22;486;48.726;8.964;2022-07-23T17:13:35;30.90;61.60